sensor_id;sensor_type;location;lat;lon;timestamp;P1;durP1;ratioP1;P2;durP2;ratioP2
61385;SDS011;47256;18.904;-99.054;2023-02-12T00:01:23;6.88;;;4.13;;
61385;SDS011;47256;18.904;-99.054;2023-02-12T00:03:51;6.18;;;4.28;;
61385;SDS011;47256;18.904;-99.054;2023-02-12T00:06:21;8.02;;;3.97;;
61385;SDS011;47256;18.904;-99.054;2023-02-12T00:08:52;6.65;;;4.15;;
61385;SDS011;47256;18.904;-99.054;2023-02-12T00:11:22;15.15;;;4.43;;
61385;SDS011;47256;18.904;-99.054;2023-02-12T00:13:53;15.48;;;5.65;;
61385;SDS011;47256;18.904;-99.054;2023-02-12T00:16:23;11.63;;;5.13;;
61385;SDS011;47256;18.904;-99.054;2023-02-12T00:18:53;10.98;;;4.85;;
61385;SDS011;47256;18.904;-99.054;2023-02-12T00:21:28;20.73;;;5.55;;
61385;SDS011;47256;18.904;-99.054;2023-02-12T00:23:55;17.10;;;4.72;;
61385;SDS011;47256;18.904;-99.054;2023-02-12T00:26:23;26.33;;;5.65;;
61385;SDS011;47256;18.904;-99.054;2023-02-12T00:28:51;35.10;;;6.90;;
61385;SDS011;47256;18.904;-99.054;2023-02-12T00:31:20;32.78;;;5.82;;
61385;SDS011;47256;18.904;-99.054;2023-02-12T00:33:49;17.23;;;5.38;;
61385;SDS011;47256;18.904;-99.054;2023-02-12T00:36:19;6.15;;;4.32;;
61385;SDS011;47256;18.904;-99.054;2023-02-12T00:38:49;8.77;;;5.28;;
61385;SDS011;47256;18.904;-99.054;2023-02-12T00:41:18;13.13;;;5.03;;
61385;SDS011;47256;18.904;-99.054;2023-02-12T00:43:46;16.85;;;5.43;;
61385;SDS011;47256;18.904;-99.054;2023-02-12T00:46:14;19.08;;;4.95;;
61385;SDS011;47256;18.904;-99.054;2023-02-12T00:48:42;47.35;;;6.90;;
61385;SDS011;47256;18.904;-99.054;2023-02-12T00:51:09;53.83;;;8.57;;
61385;SDS011;47256;18.904;-99.054;2023-02-12T00:53:37;67.75;;;9.77;;
61385;SDS011;47256;18.904;-99.054;2023-02-12T00:56:06;37.92;;;7.40;;
61385;SDS011;47256;18.904;-99.054;2023-02-12T00:58:34;34.45;;;6.70;;
61385;SDS011;47256;18.904;-99.054;2023-02-12T01:01:01;14.70;;;6.13;;
61385;SDS011;47256;18.904;-99.054;2023-02-12T01:03:30;17.65;;;4.65;;
61385;SDS011;47256;18.904;-99.054;2023-02-12T01:05:58;13.50;;;5.50;;
61385;SDS011;47256;18.904;-99.054;2023-02-12T01:08:26;13.38;;;4.57;;
61385;SDS011;47256;18.904;-99.054;2023-02-12T01:10:57;13.68;;;5.18;;
61385;SDS011;47256;18.904;-99.054;2023-02-12T01:13:27;7.90;;;4.55;;
61385;SDS011;47256;18.904;-99.054;2023-02-12T01:18:44;9.18;;;4.28;;
61385;SDS011;47256;18.904;-99.054;2023-02-12T01:21:16;8.73;;;4.80;;
61385;SDS011;47256;18.904;-99.054;2023-02-12T01:23:46;11.52;;;6.78;;
61385;SDS011;47256;18.904;-99.054;2023-02-12T01:26:15;11.70;;;5.55;;
61385;SDS011;47256;18.904;-99.054;2023-02-12T01:28:44;13.50;;;6.45;;
61385;SDS011;47256;18.904;-99.054;2023-02-12T01:31:17;9.73;;;4.85;;
61385;SDS011;47256;18.904;-99.054;2023-02-12T01:33:46;11.43;;;4.50;;
61385;SDS011;47256;18.904;-99.054;2023-02-12T01:36:15;8.95;;;4.60;;
61385;SDS011;47256;18.904;-99.054;2023-02-12T01:38:43;12.35;;;5.25;;
61385;SDS011;47256;18.904;-99.054;2023-02-12T01:41:13;16.15;;;5.43;;
61385;SDS011;47256;18.904;-99.054;2023-02-12T01:44:03;15.77;;;6.20;;
61385;SDS011;47256;18.904;-99.054;2023-02-12T01:46:58;5.50;;;4.53;;
61385;SDS011;47256;18.904;-99.054;2023-02-12T01:52:01;8.60;;;4.93;;
61385;SDS011;47256;18.904;-99.054;2023-02-12T01:54:49;9.20;;;4.90;;
61385;SDS011;47256;18.904;-99.054;2023-02-12T01:57:17;9.85;;;5.50;;
61385;SDS011;47256;18.904;-99.054;2023-02-12T01:59:47;12.48;;;5.60;;
61385;SDS011;47256;18.904;-99.054;2023-02-12T02:02:19;9.80;;;6.15;;
61385;SDS011;47256;18.904;-99.054;2023-02-12T02:04:52;9.57;;;5.50;;
61385;SDS011;47256;18.904;-99.054;2023-02-12T02:07:26;10.60;;;5.40;;
61385;SDS011;47256;18.904;-99.054;2023-02-12T02:09:56;10.02;;;5.60;;
61385;SDS011;47256;18.904;-99.054;2023-02-12T02:12:27;14.05;;;6.55;;
61385;SDS011;47256;18.904;-99.054;2023-02-12T02:15:16;14.32;;;5.88;;
61385;SDS011;47256;18.904;-99.054;2023-02-12T02:37:13;16.65;;;6.85;;
61385;SDS011;47256;18.904;-99.054;2023-02-12T02:42:30;8.65;;;5.68;;
61385;SDS011;47256;18.904;-99.054;2023-02-12T02:45:25;17.85;;;5.50;;
61385;SDS011;47256;18.904;-99.054;2023-02-12T02:47:59;20.05;;;6.55;;
61385;SDS011;47256;18.904;-99.054;2023-02-12T02:50:49;16.23;;;5.80;;
61385;SDS011;47256;18.904;-99.054;2023-02-12T02:53:29;19.75;;;6.80;;
61385;SDS011;47256;18.904;-99.054;2023-02-12T02:56:01;32.00;;;8.55;;
61385;SDS011;47256;18.904;-99.054;2023-02-12T02:58:34;34.97;;;8.85;;
61385;SDS011;47256;18.904;-99.054;2023-02-12T03:01:13;39.78;;;7.43;;
61385;SDS011;47256;18.904;-99.054;2023-02-12T03:04:00;15.95;;;6.78;;
61385;SDS011;47256;18.904;-99.054;2023-02-12T03:12:08;17.33;;;9.02;;
61385;SDS011;47256;18.904;-99.054;2023-02-12T03:14:50;16.70;;;8.57;;
61385;SDS011;47256;18.904;-99.054;2023-02-12T03:17:31;18.80;;;10.20;;
61385;SDS011;47256;18.904;-99.054;2023-02-12T03:20:05;17.98;;;8.35;;
61385;SDS011;47256;18.904;-99.054;2023-02-12T03:22:41;25.48;;;8.32;;
61385;SDS011;47256;18.904;-99.054;2023-02-12T03:25:17;15.68;;;7.95;;
61385;SDS011;47256;18.904;-99.054;2023-02-12T03:27:56;18.77;;;8.82;;
61385;SDS011;47256;18.904;-99.054;2023-02-12T03:30:47;18.08;;;8.13;;
61385;SDS011;47256;18.904;-99.054;2023-02-12T03:33:21;20.15;;;9.20;;
61385;SDS011;47256;18.904;-99.054;2023-02-12T03:38:53;27.40;;;9.52;;
61385;SDS011;47256;18.904;-99.054;2023-02-12T03:41:24;31.70;;;8.98;;
61385;SDS011;47256;18.904;-99.054;2023-02-12T03:44:06;20.63;;;8.40;;
61385;SDS011;47256;18.904;-99.054;2023-02-12T03:46:56;34.85;;;8.45;;
61385;SDS011;47256;18.904;-99.054;2023-02-12T03:49:48;30.15;;;9.73;;
61385;SDS011;47256;18.904;-99.054;2023-02-12T03:52:42;16.27;;;7.45;;
61385;SDS011;47256;18.904;-99.054;2023-02-12T03:55:11;18.10;;;8.52;;
61385;SDS011;47256;18.904;-99.054;2023-02-12T03:57:47;28.40;;;9.52;;
61385;SDS011;47256;18.904;-99.054;2023-02-12T04:00:22;28.23;;;9.18;;
61385;SDS011;47256;18.904;-99.054;2023-02-12T04:02:51;15.38;;;8.50;;
61385;SDS011;47256;18.904;-99.054;2023-02-12T04:05:21;16.73;;;8.48;;
61385;SDS011;47256;18.904;-99.054;2023-02-12T04:07:55;34.38;;;9.15;;
61385;SDS011;47256;18.904;-99.054;2023-02-12T04:10:31;21.40;;;10.73;;
61385;SDS011;47256;18.904;-99.054;2023-02-12T04:13:10;17.10;;;8.73;;
61385;SDS011;47256;18.904;-99.054;2023-02-12T04:18:44;19.92;;;10.38;;
61385;SDS011;47256;18.904;-99.054;2023-02-12T04:24:18;17.90;;;9.32;;
61385;SDS011;47256;18.904;-99.054;2023-02-12T04:27:13;36.55;;;10.50;;
61385;SDS011;47256;18.904;-99.054;2023-02-12T04:35:11;18.35;;;10.65;;
61385;SDS011;47256;18.904;-99.054;2023-02-12T04:37:47;21.38;;;10.85;;
61385;SDS011;47256;18.904;-99.054;2023-02-12T04:40:19;28.73;;;10.85;;
61385;SDS011;47256;18.904;-99.054;2023-02-12T04:42:49;26.65;;;10.00;;
61385;SDS011;47256;18.904;-99.054;2023-02-12T04:45:23;18.90;;;9.55;;
61385;SDS011;47256;18.904;-99.054;2023-02-12T04:47:54;16.17;;;9.20;;
61385;SDS011;47256;18.904;-99.054;2023-02-12T04:50:22;19.42;;;9.80;;
61385;SDS011;47256;18.904;-99.054;2023-02-12T04:52:50;23.52;;;10.98;;
61385;SDS011;47256;18.904;-99.054;2023-02-12T04:55:18;26.00;;;9.77;;
61385;SDS011;47256;18.904;-99.054;2023-02-12T04:57:46;24.45;;;10.57;;
61385;SDS011;47256;18.904;-99.054;2023-02-12T05:00:13;22.35;;;8.68;;
61385;SDS011;47256;18.904;-99.054;2023-02-12T05:02:41;31.90;;;9.68;;
61385;SDS011;47256;18.904;-99.054;2023-02-12T05:05:08;16.67;;;9.13;;
61385;SDS011;47256;18.904;-99.054;2023-02-12T05:07:36;20.02;;;8.35;;
61385;SDS011;47256;18.904;-99.054;2023-02-12T05:10:04;16.98;;;9.30;;
61385;SDS011;47256;18.904;-99.054;2023-02-12T05:12:31;21.40;;;9.35;;
61385;SDS011;47256;18.904;-99.054;2023-02-12T05:14:59;15.93;;;9.02;;
61385;SDS011;47256;18.904;-99.054;2023-02-12T05:17:26;20.52;;;10.07;;
61385;SDS011;47256;18.904;-99.054;2023-02-12T05:19:54;17.27;;;9.40;;
61385;SDS011;47256;18.904;-99.054;2023-02-12T05:22:22;16.83;;;8.70;;
61385;SDS011;47256;18.904;-99.054;2023-02-12T05:24:50;21.73;;;8.90;;
61385;SDS011;47256;18.904;-99.054;2023-02-12T05:27:17;27.67;;;8.55;;
61385;SDS011;47256;18.904;-99.054;2023-02-12T05:29:44;20.13;;;9.50;;
61385;SDS011;47256;18.904;-99.054;2023-02-12T05:32:11;18.67;;;9.25;;
61385;SDS011;47256;18.904;-99.054;2023-02-12T05:34:39;26.45;;;9.23;;
61385;SDS011;47256;18.904;-99.054;2023-02-12T05:37:09;19.20;;;7.55;;
61385;SDS011;47256;18.904;-99.054;2023-02-12T05:39:37;20.17;;;8.57;;
61385;SDS011;47256;18.904;-99.054;2023-02-12T05:42:04;26.27;;;9.43;;
61385;SDS011;47256;18.904;-99.054;2023-02-12T05:44:32;21.73;;;9.30;;
61385;SDS011;47256;18.904;-99.054;2023-02-12T05:46:59;16.08;;;8.32;;
61385;SDS011;47256;18.904;-99.054;2023-02-12T05:49:26;23.65;;;8.88;;
61385;SDS011;47256;18.904;-99.054;2023-02-12T05:51:54;25.13;;;9.88;;
61385;SDS011;47256;18.904;-99.054;2023-02-12T05:54:21;32.72;;;7.57;;
61385;SDS011;47256;18.904;-99.054;2023-02-12T05:56:48;19.83;;;8.55;;
61385;SDS011;47256;18.904;-99.054;2023-02-12T05:59:17;19.02;;;9.48;;
61385;SDS011;47256;18.904;-99.054;2023-02-12T06:01:48;19.77;;;9.23;;
61385;SDS011;47256;18.904;-99.054;2023-02-12T06:04:19;16.48;;;8.55;;
61385;SDS011;47256;18.904;-99.054;2023-02-12T06:06:49;21.15;;;8.55;;
61385;SDS011;47256;18.904;-99.054;2023-02-12T06:09:17;17.17;;;8.52;;
61385;SDS011;47256;18.904;-99.054;2023-02-12T06:11:44;20.48;;;8.63;;
61385;SDS011;47256;18.904;-99.054;2023-02-12T06:14:13;14.90;;;8.18;;
61385;SDS011;47256;18.904;-99.054;2023-02-12T06:16:44;20.20;;;8.23;;
61385;SDS011;47256;18.904;-99.054;2023-02-12T06:19:12;21.70;;;9.10;;
61385;SDS011;47256;18.904;-99.054;2023-02-12T06:21:40;22.77;;;10.35;;
61385;SDS011;47256;18.904;-99.054;2023-02-12T06:24:08;16.63;;;9.60;;
61385;SDS011;47256;18.904;-99.054;2023-02-12T06:26:40;25.58;;;11.00;;
61385;SDS011;47256;18.904;-99.054;2023-02-12T06:29:08;18.38;;;9.45;;
61385;SDS011;47256;18.904;-99.054;2023-02-12T06:31:35;41.75;;;10.35;;
61385;SDS011;47256;18.904;-99.054;2023-02-12T06:34:04;43.45;;;10.32;;
61385;SDS011;47256;18.904;-99.054;2023-02-12T06:36:35;22.30;;;9.25;;
61385;SDS011;47256;18.904;-99.054;2023-02-12T06:39:04;19.45;;;10.07;;
61385;SDS011;47256;18.904;-99.054;2023-02-12T06:41:32;34.10;;;10.65;;
61385;SDS011;47256;18.904;-99.054;2023-02-12T06:43:59;30.63;;;9.75;;
61385;SDS011;47256;18.904;-99.054;2023-02-12T06:46:27;24.10;;;9.80;;
61385;SDS011;47256;18.904;-99.054;2023-02-12T06:48:55;26.65;;;9.93;;
61385;SDS011;47256;18.904;-99.054;2023-02-12T06:51:24;24.75;;;10.00;;
61385;SDS011;47256;18.904;-99.054;2023-02-12T06:53:53;19.58;;;9.43;;
61385;SDS011;47256;18.904;-99.054;2023-02-12T06:56:22;20.15;;;9.45;;
61385;SDS011;47256;18.904;-99.054;2023-02-12T06:58:52;17.67;;;9.25;;
61385;SDS011;47256;18.904;-99.054;2023-02-12T07:01:27;36.47;;;12.00;;
61385;SDS011;47256;18.904;-99.054;2023-02-12T07:03:56;38.40;;;10.25;;
61385;SDS011;47256;18.904;-99.054;2023-02-12T07:06:32;13.18;;;8.10;;
61385;SDS011;47256;18.904;-99.054;2023-02-12T07:09:00;22.60;;;10.05;;
61385;SDS011;47256;18.904;-99.054;2023-02-12T07:11:30;17.10;;;8.93;;
61385;SDS011;47256;18.904;-99.054;2023-02-12T07:13:59;24.45;;;9.63;;
61385;SDS011;47256;18.904;-99.054;2023-02-12T07:16:26;22.17;;;9.95;;
61385;SDS011;47256;18.904;-99.054;2023-02-12T07:18:54;20.98;;;9.13;;
61385;SDS011;47256;18.904;-99.054;2023-02-12T07:21:27;21.73;;;8.57;;
61385;SDS011;47256;18.904;-99.054;2023-02-12T07:23:57;21.95;;;9.60;;
61385;SDS011;47256;18.904;-99.054;2023-02-12T07:26:25;20.30;;;8.38;;
61385;SDS011;47256;18.904;-99.054;2023-02-12T07:28:52;13.73;;;8.05;;
61385;SDS011;47256;18.904;-99.054;2023-02-12T07:31:20;22.88;;;9.15;;
61385;SDS011;47256;18.904;-99.054;2023-02-12T07:33:52;10.82;;;7.55;;
61385;SDS011;47256;18.904;-99.054;2023-02-12T07:36:20;19.98;;;8.27;;
61385;SDS011;47256;18.904;-99.054;2023-02-12T07:38:48;24.70;;;10.00;;
61385;SDS011;47256;18.904;-99.054;2023-02-12T07:41:20;21.77;;;8.73;;
61385;SDS011;47256;18.904;-99.054;2023-02-12T07:43:52;21.05;;;9.77;;
61385;SDS011;47256;18.904;-99.054;2023-02-12T07:46:25;26.30;;;9.10;;
61385;SDS011;47256;18.904;-99.054;2023-02-12T07:48:55;15.68;;;8.25;;
61385;SDS011;47256;18.904;-99.054;2023-02-12T07:51:24;20.63;;;8.93;;
61385;SDS011;47256;18.904;-99.054;2023-02-12T07:53:53;25.13;;;10.68;;
61385;SDS011;47256;18.904;-99.054;2023-02-12T07:56:21;21.02;;;9.60;;
61385;SDS011;47256;18.904;-99.054;2023-02-12T07:58:54;23.98;;;8.93;;
61385;SDS011;47256;18.904;-99.054;2023-02-12T08:01:23;17.63;;;9.27;;
61385;SDS011;47256;18.904;-99.054;2023-02-12T08:04:05;23.85;;;8.98;;
61385;SDS011;47256;18.904;-99.054;2023-02-12T08:06:37;23.00;;;9.20;;
61385;SDS011;47256;18.904;-99.054;2023-02-12T08:09:07;18.83;;;7.28;;
61385;SDS011;47256;18.904;-99.054;2023-02-12T08:11:36;13.65;;;8.25;;
61385;SDS011;47256;18.904;-99.054;2023-02-12T08:14:05;12.48;;;7.50;;
61385;SDS011;47256;18.904;-99.054;2023-02-12T08:16:37;16.33;;;7.15;;
61385;SDS011;47256;18.904;-99.054;2023-02-12T08:19:06;17.90;;;8.82;;
61385;SDS011;47256;18.904;-99.054;2023-02-12T08:21:34;31.42;;;8.60;;
61385;SDS011;47256;18.904;-99.054;2023-02-12T08:24:02;13.90;;;7.80;;
61385;SDS011;47256;18.904;-99.054;2023-02-12T08:26:34;12.13;;;7.10;;
61385;SDS011;47256;18.904;-99.054;2023-02-12T08:29:04;13.35;;;5.95;;
61385;SDS011;47256;18.904;-99.054;2023-02-12T08:31:36;22.45;;;6.55;;
61385;SDS011;47256;18.904;-99.054;2023-02-12T08:34:05;18.60;;;7.05;;
61385;SDS011;47256;18.904;-99.054;2023-02-12T08:36:37;14.85;;;5.28;;
61385;SDS011;47256;18.904;-99.054;2023-02-12T08:39:05;9.35;;;6.18;;
61385;SDS011;47256;18.904;-99.054;2023-02-12T08:41:34;14.38;;;5.18;;
61385;SDS011;47256;18.904;-99.054;2023-02-12T08:44:02;10.40;;;5.57;;
61385;SDS011;47256;18.904;-99.054;2023-02-12T08:46:32;11.45;;;5.72;;
61385;SDS011;47256;18.904;-99.054;2023-02-12T08:49:08;11.18;;;5.75;;
61385;SDS011;47256;18.904;-99.054;2023-02-12T08:51:41;9.15;;;5.00;;
61385;SDS011;47256;18.904;-99.054;2023-02-12T08:54:11;10.02;;;5.72;;
61385;SDS011;47256;18.904;-99.054;2023-02-12T08:56:40;12.85;;;6.18;;
61385;SDS011;47256;18.904;-99.054;2023-02-12T08:59:10;16.05;;;4.97;;
61385;SDS011;47256;18.904;-99.054;2023-02-12T09:01:39;9.50;;;5.25;;
61385;SDS011;47256;18.904;-99.054;2023-02-12T09:04:14;8.20;;;4.47;;
61385;SDS011;47256;18.904;-99.054;2023-02-12T09:06:43;16.65;;;5.30;;
61385;SDS011;47256;18.904;-99.054;2023-02-12T09:09:11;11.70;;;4.45;;
61385;SDS011;47256;18.904;-99.054;2023-02-12T09:11:39;7.72;;;4.15;;
61385;SDS011;47256;18.904;-99.054;2023-02-12T09:14:07;8.82;;;4.78;;
61385;SDS011;47256;18.904;-99.054;2023-02-12T09:16:38;7.72;;;4.53;;
61385;SDS011;47256;18.904;-99.054;2023-02-12T09:19:06;8.85;;;3.90;;
61385;SDS011;47256;18.904;-99.054;2023-02-12T09:21:34;6.72;;;4.80;;
61385;SDS011;47256;18.904;-99.054;2023-02-12T09:24:01;9.90;;;4.35;;
61385;SDS011;47256;18.904;-99.054;2023-02-12T09:26:29;8.77;;;4.07;;
61385;SDS011;47256;18.904;-99.054;2023-02-12T09:28:57;9.38;;;3.30;;
61385;SDS011;47256;18.904;-99.054;2023-02-12T09:31:26;12.43;;;4.30;;
61385;SDS011;47256;18.904;-99.054;2023-02-12T09:33:57;9.40;;;4.32;;
61385;SDS011;47256;18.904;-99.054;2023-02-12T09:36:29;15.35;;;3.72;;
61385;SDS011;47256;18.904;-99.054;2023-02-12T09:38:57;14.27;;;4.00;;
61385;SDS011;47256;18.904;-99.054;2023-02-12T09:47:25;8.48;;;4.13;;
61385;SDS011;47256;18.904;-99.054;2023-02-12T09:53:01;6.75;;;4.03;;
61385;SDS011;47256;18.904;-99.054;2023-02-12T09:55:30;9.38;;;2.85;;
61385;SDS011;47256;18.904;-99.054;2023-02-12T09:58:01;6.00;;;3.47;;
61385;SDS011;47256;18.904;-99.054;2023-02-12T10:00:36;12.13;;;3.78;;
61385;SDS011;47256;18.904;-99.054;2023-02-12T10:03:05;7.35;;;4.07;;
61385;SDS011;47256;18.904;-99.054;2023-02-12T10:05:57;11.35;;;4.25;;
61385;SDS011;47256;18.904;-99.054;2023-02-12T10:19:48;10.82;;;4.80;;
61385;SDS011;47256;18.904;-99.054;2023-02-12T10:28:14;11.15;;;5.70;;
61385;SDS011;47256;18.904;-99.054;2023-02-12T10:30:57;7.18;;;4.28;;
61385;SDS011;47256;18.904;-99.054;2023-02-12T10:39:00;9.20;;;5.57;;
61385;SDS011;47256;18.904;-99.054;2023-02-12T10:41:41;15.63;;;5.60;;
61385;SDS011;47256;18.904;-99.054;2023-02-12T10:44:14;7.05;;;4.63;;
61385;SDS011;47256;18.904;-99.054;2023-02-12T10:46:42;15.73;;;4.57;;
61385;SDS011;47256;18.904;-99.054;2023-02-12T10:49:10;10.68;;;5.47;;
61385;SDS011;47256;18.904;-99.054;2023-02-12T10:57:14;6.97;;;4.38;;
61385;SDS011;47256;18.904;-99.054;2023-02-12T10:59:50;8.48;;;4.22;;
61385;SDS011;47256;18.904;-99.054;2023-02-12T11:02:27;12.98;;;5.68;;
61385;SDS011;47256;18.904;-99.054;2023-02-12T11:04:57;12.45;;;4.57;;
61385;SDS011;47256;18.904;-99.054;2023-02-12T11:07:27;12.63;;;4.50;;
61385;SDS011;47256;18.904;-99.054;2023-02-12T11:09:58;8.68;;;4.15;;
61385;SDS011;47256;18.904;-99.054;2023-02-12T11:12:30;9.93;;;4.20;;
61385;SDS011;47256;18.904;-99.054;2023-02-12T11:17:43;9.20;;;4.50;;
61385;SDS011;47256;18.904;-99.054;2023-02-12T11:20:27;5.93;;;3.42;;
61385;SDS011;47256;18.904;-99.054;2023-02-12T11:23:00;5.60;;;3.47;;
61385;SDS011;47256;18.904;-99.054;2023-02-12T11:25:32;5.82;;;3.03;;
61385;SDS011;47256;18.904;-99.054;2023-02-12T11:28:11;5.35;;;2.95;;
61385;SDS011;47256;18.904;-99.054;2023-02-12T11:30:54;7.63;;;3.38;;
61385;SDS011;47256;18.904;-99.054;2023-02-12T11:36:01;12.40;;;3.92;;
61385;SDS011;47256;18.904;-99.054;2023-02-12T11:38:47;5.05;;;3.17;;
61385;SDS011;47256;18.904;-99.054;2023-02-12T11:44:07;12.50;;;4.60;;
61385;SDS011;47256;18.904;-99.054;2023-02-12T11:46:47;5.90;;;3.00;;
61385;SDS011;47256;18.904;-99.054;2023-02-12T11:49:18;9.15;;;4.00;;
61385;SDS011;47256;18.904;-99.054;2023-02-12T11:51:49;7.68;;;2.83;;
61385;SDS011;47256;18.904;-99.054;2023-02-12T11:54:21;7.22;;;3.15;;
61385;SDS011;47256;18.904;-99.054;2023-02-12T11:56:52;5.65;;;3.83;;
61385;SDS011;47256;18.904;-99.054;2023-02-12T11:59:31;6.20;;;3.10;;
61385;SDS011;47256;18.904;-99.054;2023-02-12T12:04:48;14.05;;;3.38;;
61385;SDS011;47256;18.904;-99.054;2023-02-12T12:07:22;4.93;;;2.80;;
61385;SDS011;47256;18.904;-99.054;2023-02-12T12:10:30;8.00;;;3.10;;
61385;SDS011;47256;18.904;-99.054;2023-02-12T12:13:38;11.27;;;3.55;;
61385;SDS011;47256;18.904;-99.054;2023-02-12T12:16:30;8.80;;;3.53;;
61385;SDS011;47256;18.904;-99.054;2023-02-12T12:19:24;6.35;;;3.40;;
61385;SDS011;47256;18.904;-99.054;2023-02-12T12:22:22;5.50;;;3.58;;
61385;SDS011;47256;18.904;-99.054;2023-02-12T12:25:02;8.52;;;3.30;;
61385;SDS011;47256;18.904;-99.054;2023-02-12T12:30:48;14.80;;;4.00;;
61385;SDS011;47256;18.904;-99.054;2023-02-12T12:33:34;7.82;;;4.78;;
61385;SDS011;47256;18.904;-99.054;2023-02-12T12:39:15;7.20;;;3.90;;
61385;SDS011;47256;18.904;-99.054;2023-02-12T13:09:13;10.57;;;3.30;;
61385;SDS011;47256;18.904;-99.054;2023-02-12T13:17:26;12.13;;;4.43;;
61385;SDS011;47256;18.904;-99.054;2023-02-12T13:20:04;10.25;;;3.78;;
61385;SDS011;47256;18.904;-99.054;2023-02-12T13:25:46;8.32;;;3.00;;
61385;SDS011;47256;18.904;-99.054;2023-02-12T13:28:39;26.40;;;4.63;;
61385;SDS011;47256;18.904;-99.054;2023-02-12T13:31:15;26.73;;;6.60;;
61385;SDS011;47256;18.904;-99.054;2023-02-12T13:33:54;20.05;;;8.10;;
61385;SDS011;47256;18.904;-99.054;2023-02-12T13:38:55;18.85;;;6.03;;
61385;SDS011;47256;18.904;-99.054;2023-02-12T13:41:24;25.13;;;10.10;;
61385;SDS011;47256;18.904;-99.054;2023-02-12T13:51:58;21.13;;;5.38;;
61385;SDS011;47256;18.904;-99.054;2023-02-12T13:54:48;13.43;;;5.32;;
61385;SDS011;47256;18.904;-99.054;2023-02-12T13:57:37;10.40;;;4.97;;
61385;SDS011;47256;18.904;-99.054;2023-02-12T14:00:04;11.18;;;4.95;;
61385;SDS011;47256;18.904;-99.054;2023-02-12T14:08:00;11.13;;;4.50;;
61385;SDS011;47256;18.904;-99.054;2023-02-12T14:10:33;12.40;;;4.63;;
61385;SDS011;47256;18.904;-99.054;2023-02-12T14:13:11;8.30;;;4.55;;
61385;SDS011;47256;18.904;-99.054;2023-02-12T14:15:51;15.77;;;5.25;;
61385;SDS011;47256;18.904;-99.054;2023-02-12T14:23:39;9.32;;;3.95;;
61385;SDS011;47256;18.904;-99.054;2023-02-12T14:26:09;11.25;;;5.05;;
61385;SDS011;47256;18.904;-99.054;2023-02-12T14:28:59;12.02;;;5.25;;
61385;SDS011;47256;18.904;-99.054;2023-02-12T14:36:37;11.20;;;5.60;;
61385;SDS011;47256;18.904;-99.054;2023-02-12T14:41:49;11.95;;;5.28;;
61385;SDS011;47256;18.904;-99.054;2023-02-12T14:46:49;20.27;;;7.38;;
61385;SDS011;47256;18.904;-99.054;2023-02-12T14:49:43;15.02;;;6.32;;
61385;SDS011;47256;18.904;-99.054;2023-02-12T14:54:50;9.45;;;4.95;;
61385;SDS011;47256;18.904;-99.054;2023-02-12T14:57:33;13.63;;;6.60;;
61385;SDS011;47256;18.904;-99.054;2023-02-12T15:00:06;11.75;;;5.10;;
61385;SDS011;47256;18.904;-99.054;2023-02-12T15:05:53;15.00;;;5.32;;
61385;SDS011;47256;18.904;-99.054;2023-02-12T15:08:36;10.25;;;5.65;;
61385;SDS011;47256;18.904;-99.054;2023-02-12T15:11:19;11.80;;;5.68;;
61385;SDS011;47256;18.904;-99.054;2023-02-12T15:16:50;11.88;;;4.70;;
61385;SDS011;47256;18.904;-99.054;2023-02-12T15:25:22;9.70;;;4.28;;
61385;SDS011;47256;18.904;-99.054;2023-02-12T15:27:53;7.65;;;4.50;;
61385;SDS011;47256;18.904;-99.054;2023-02-12T15:30:22;7.82;;;3.88;;
61385;SDS011;47256;18.904;-99.054;2023-02-12T15:32:55;5.85;;;3.72;;
61385;SDS011;47256;18.904;-99.054;2023-02-12T15:35:30;9.20;;;3.88;;
61385;SDS011;47256;18.904;-99.054;2023-02-12T15:37:59;7.03;;;4.50;;
61385;SDS011;47256;18.904;-99.054;2023-02-12T15:40:28;6.07;;;3.92;;
61385;SDS011;47256;18.904;-99.054;2023-02-12T15:42:57;9.10;;;3.90;;
61385;SDS011;47256;18.904;-99.054;2023-02-12T15:45:30;14.95;;;5.85;;
61385;SDS011;47256;18.904;-99.054;2023-02-12T15:50:30;6.05;;;3.45;;
61385;SDS011;47256;18.904;-99.054;2023-02-12T15:52:58;6.38;;;3.38;;
61385;SDS011;47256;18.904;-99.054;2023-02-12T15:55:27;10.10;;;4.88;;
61385;SDS011;47256;18.904;-99.054;2023-02-12T15:57:59;12.18;;;4.85;;
61385;SDS011;47256;18.904;-99.054;2023-02-12T16:00:29;6.65;;;4.55;;
61385;SDS011;47256;18.904;-99.054;2023-02-12T16:03:16;15.75;;;5.80;;
61385;SDS011;47256;18.904;-99.054;2023-02-12T16:05:48;18.75;;;6.32;;
61385;SDS011;47256;18.904;-99.054;2023-02-12T16:08:17;11.35;;;5.93;;
61385;SDS011;47256;18.904;-99.054;2023-02-12T16:10:49;19.02;;;4.88;;
61385;SDS011;47256;18.904;-99.054;2023-02-12T16:13:26;8.50;;;3.58;;
61385;SDS011;47256;18.904;-99.054;2023-02-12T16:16:02;7.80;;;3.65;;
61385;SDS011;47256;18.904;-99.054;2023-02-12T16:18:40;8.52;;;4.20;;
61385;SDS011;47256;18.904;-99.054;2023-02-12T16:23:48;5.72;;;3.42;;
61385;SDS011;47256;18.904;-99.054;2023-02-12T16:26:17;22.23;;;4.97;;
61385;SDS011;47256;18.904;-99.054;2023-02-12T16:28:51;9.55;;;4.72;;
61385;SDS011;47256;18.904;-99.054;2023-02-12T16:31:22;10.55;;;4.50;;
61385;SDS011;47256;18.904;-99.054;2023-02-12T16:33:54;7.57;;;4.70;;
61385;SDS011;47256;18.904;-99.054;2023-02-12T16:38:59;5.90;;;4.07;;
61385;SDS011;47256;18.904;-99.054;2023-02-12T16:41:29;9.10;;;4.80;;
61385;SDS011;47256;18.904;-99.054;2023-02-12T16:46:28;16.55;;;5.93;;
61385;SDS011;47256;18.904;-99.054;2023-02-12T16:49:19;7.72;;;5.25;;
61385;SDS011;47256;18.904;-99.054;2023-02-12T16:51:49;17.55;;;5.47;;
61385;SDS011;47256;18.904;-99.054;2023-02-12T16:56:59;7.72;;;4.18;;
61385;SDS011;47256;18.904;-99.054;2023-02-12T16:59:27;5.88;;;3.65;;
61385;SDS011;47256;18.904;-99.054;2023-02-12T17:04:30;18.75;;;5.05;;
61385;SDS011;47256;18.904;-99.054;2023-02-12T17:06:57;12.63;;;5.63;;
61385;SDS011;47256;18.904;-99.054;2023-02-12T17:09:25;6.13;;;3.65;;
61385;SDS011;47256;18.904;-99.054;2023-02-12T17:11:55;19.50;;;4.13;;
61385;SDS011;47256;18.904;-99.054;2023-02-12T17:14:23;5.60;;;3.58;;
61385;SDS011;47256;18.904;-99.054;2023-02-12T17:16:51;8.20;;;3.85;;
61385;SDS011;47256;18.904;-99.054;2023-02-12T17:19:18;8.07;;;4.38;;
61385;SDS011;47256;18.904;-99.054;2023-02-12T17:21:45;24.92;;;5.07;;
61385;SDS011;47256;18.904;-99.054;2023-02-12T17:24:17;16.20;;;4.15;;
61385;SDS011;47256;18.904;-99.054;2023-02-12T17:26:49;6.63;;;3.83;;
61385;SDS011;47256;18.904;-99.054;2023-02-12T17:29:18;6.93;;;3.80;;
61385;SDS011;47256;18.904;-99.054;2023-02-12T17:31:46;6.13;;;3.50;;
61385;SDS011;47256;18.904;-99.054;2023-02-12T17:34:14;26.23;;;4.43;;
61385;SDS011;47256;18.904;-99.054;2023-02-12T17:36:42;7.28;;;4.00;;
61385;SDS011;47256;18.904;-99.054;2023-02-12T17:39:11;6.80;;;3.72;;
61385;SDS011;47256;18.904;-99.054;2023-02-12T17:41:39;8.98;;;3.38;;
61385;SDS011;47256;18.904;-99.054;2023-02-12T17:44:09;9.18;;;3.88;;
61385;SDS011;47256;18.904;-99.054;2023-02-12T17:46:39;12.55;;;3.60;;
61385;SDS011;47256;18.904;-99.054;2023-02-12T17:49:07;12.23;;;4.13;;
61385;SDS011;47256;18.904;-99.054;2023-02-12T17:51:34;5.63;;;3.45;;
61385;SDS011;47256;18.904;-99.054;2023-02-12T17:54:02;8.07;;;4.10;;
61385;SDS011;47256;18.904;-99.054;2023-02-12T17:56:30;15.23;;;4.68;;
61385;SDS011;47256;18.904;-99.054;2023-02-12T17:58:57;12.48;;;3.92;;
61385;SDS011;47256;18.904;-99.054;2023-02-12T18:01:25;9.13;;;4.45;;